Time,TemperatureF,DewpointF,PressureIn,WindDirection,WindDirectionDegrees,WindSpeedMPH,WindSpeedGustMPH,Humidity,HourlyPrecipIn,Conditions,Clouds,dailyrainin,SoftwareType,DateUTC
2013-05-31 00:07:00,63.0,-39.0,29.40,SW,225,0.0,-999.0,1,-99.99,,,0.00,Acu-Link.com,2013-05-31 05:07:00,
2013-05-31 00:23:00,62.8,-39.2,29.39,South,180,0.0,-999.0,1,-99.99,,,0.00,Acu-Link.com,2013-05-31 05:23:00,
2013-05-31 00:38:00,62.6,-39.3,29.38,South,180,0.0,-999.0,1,-99.99,,,0.00,Acu-Link.com,2013-05-31 05:38:00,
2013-05-31 00:53:00,62.6,-39.3,29.37,NNE,22,0.0,-999.0,1,-99.99,,,0.00,Acu-Link.com,2013-05-31 05:53:00,
2013-05-31 01:08:00,62.6,-39.3,29.38,SSW,202,0.0,-999.0,1,-99.99,,,0.00,Acu-Link.com,2013-05-31 06:08:00,
2013-05-31 01:23:00,62.6,-39.3,29.38,SSE,157,0.0,-999.0,1,-99.99,,,0.00,Acu-Link.com,2013-05-31 06:23:00,
2013-05-31 01:38:00,62.4,-39.4,29.37,South,180,0.0,-999.0,1,-99.99,,,0.00,Acu-Link.com,2013-05-31 06:38:00,
2013-05-31 01:53:00,62.1,-39.6,29.38,SE,135,0.0,-999.0,1,-99.99,,,0.00,Acu-Link.com,2013-05-31 06:53:00,
2013-05-31 02:08:00,62.2,-39.5,29.39,SW,225,0.0,-999.0,1,-99.99,,,0.00,Acu-Link.com,2013-05-31 07:08:00,
2013-05-31 02:23:00,62.2,-39.5,29.39,South,180,0.0,-999.0,1,-99.99,,,0.00,Acu-Link.com,2013-05-31 07:23:00,
2013-05-31 02:39:00,62.4,-39.4,29.40,SSW,202,0.0,-999.0,1,-99.99,,,0.00,Acu-Link.com,2013-05-31 07:39:00,
2013-05-31 02:54:00,62.6,-39.3,29.40,SSE,157,0.0,-999.0,1,-99.99,,,0.00,Acu-Link.com,2013-05-31 07:54:00,
2013-05-31 03:11:00,62.6,-39.3,29.39,South,180,0.0,-999.0,1,-99.99,,,0.00,Acu-Link.com,2013-05-31 08:11:00,
2013-05-31 03:27:00,62.6,-39.3,29.39,SSE,157,0.0,-999.0,1,-99.99,,,0.00,Acu-Link.com,2013-05-31 08:27:00,
2013-05-31 03:42:00,62.6,-39.3,29.41,SW,225,0.0,-999.0,1,-99.99,,,0.00,Acu-Link.com,2013-05-31 08:42:00,
2013-05-31 03:57:00,62.4,-39.4,29.40,SSE,157,0.0,-999.0,1,-99.99,,,0.00,Acu-Link.com,2013-05-31 08:57:00,
2013-05-31 04:12:00,62.8,-39.2,29.40,SSE,157,0.0,-999.0,1,-99.99,,,0.00,Acu-Link.com,2013-05-31 09:12:00,
2013-05-31 04:27:00,63.0,-39.0,29.39,WSW,247,0.0,-999.0,1,-99.99,,,0.00,Acu-Link.com,2013-05-31 09:27:00,
2013-05-31 04:42:00,63.5,-38.7,29.39,South,180,0.0,-999.0,1,-99.99,,,0.00,Acu-Link.com,2013-05-31 09:42:00,
2013-05-31 04:57:00,63.1,-39.0,29.38,SSE,157,0.0,-999.0,1,-99.99,,,0.00,Acu-Link.com,2013-05-31 09:57:00,
2013-05-31 05:12:00,62.8,-39.2,29.38,South,180,0.0,-999.0,1,-99.99,,,0.00,Acu-Link.com,2013-05-31 10:12:00,
2013-05-31 05:28:00,62.8,-39.2,29.36,SSE,157,0.0,-999.0,1,-99.99,,,0.00,Acu-Link.com,2013-05-31 10:28:00,
2013-05-31 05:43:00,62.8,-39.2,29.37,South,180,0.0,-999.0,1,-99.99,,,0.00,Acu-Link.com,2013-05-31 10:43:00,
2013-05-31 05:58:00,63.0,-39.0,29.37,South,180,0.0,-999.0,1,-99.99,,,0.00,Acu-Link.com,2013-05-31 10:58:00,
2013-05-31 06:13:00,62.8,-39.2,29.38,SSW,202,0.0,-999.0,1,-99.99,,,0.00,Acu-Link.com,2013-05-31 11:13:00,
2013-05-31 06:28:00,63.0,-39.0,29.39,South,180,0.0,-999.0,1,-99.99,,,0.00,Acu-Link.com,2013-05-31 11:28:00,
2013-05-31 06:43:00,63.0,-39.0,29.38,South,180,0.0,-999.0,1,-99.99,,,0.00,Acu-Link.com,2013-05-31 11:43:00,
2013-05-31 06:59:00,63.0,-39.0,29.37,South,180,0.0,-999.0,1,-99.99,,,0.00,Acu-Link.com,2013-05-31 11:59:00,
2013-05-31 07:14:00,63.3,-38.9,29.37,SSW,202,0.0,-999.0,1,-99.99,,,0.00,Acu-Link.com,2013-05-31 12:14:00,
2013-05-31 07:29:00,63.0,-39.0,29.38,South,180,0.0,-999.0,1,-99.99,,,0.00,Acu-Link.com,2013-05-31 12:29:00,
2013-05-31 07:44:00,63.5,-38.7,29.38,SSE,157,0.0,-999.0,1,-99.99,,,0.00,Acu-Link.com,2013-05-31 12:44:00,
2013-05-31 07:59:00,64.4,-38.2,29.38,SSE,157,0.0,-999.0,1,-99.99,,,0.00,Acu-Link.com,2013-05-31 12:59:00,
2013-05-31 08:14:00,66.6,-36.9,29.39,South,180,0.0,-999.0,1,-99.99,,,0.00,Acu-Link.com,2013-05-31 13:14:00,
2013-05-31 08:29:00,69.3,-35.2,29.39,South,180,0.0,-999.0,1,-99.99,,,0.00,Acu-Link.com,2013-05-31 13:29:00,
2013-05-31 08:44:00,72.1,-33.6,29.39,South,180,0.0,-999.0,1,-99.99,,,0.00,Acu-Link.com,2013-05-31 13:44:00,
2013-05-31 08:59:00,73.6,-32.7,29.39,South,180,0.0,-999.0,1,-99.99,,,0.00,Acu-Link.com,2013-05-31 13:59:00,
2013-05-31 09:14:00,71.4,-34.0,29.39,SSE,157,0.0,-999.0,1,-99.99,,,0.00,Acu-Link.com,2013-05-31 14:14:00,
2013-05-31 09:30:00,72.5,-33.3,29.39,South,180,0.0,-999.0,1,-99.99,,,0.00,Acu-Link.com,2013-05-31 14:30:00,
2013-05-31 09:45:00,73.0,-33.0,29.39,South,180,0.0,-999.0,1,-99.99,,,0.00,Acu-Link.com,2013-05-31 14:45:00,
2013-05-31 10:00:00,74.5,-32.1,29.39,WSW,247,0.0,-999.0,1,-99.99,,,0.00,Acu-Link.com,2013-05-31 15:00:00,
2013-05-31 10:15:00,75.9,-31.3,29.39,South,180,0.0,-999.0,1,-99.99,,,0.00,Acu-Link.com,2013-05-31 15:15:00,
2013-05-31 10:30:00,75.9,-31.3,29.40,South,180,0.0,-999.0,1,-99.99,,,0.00,Acu-Link.com,2013-05-31 15:30:00,
2013-05-31 10:45:00,76.3,-31.0,29.40,SW,225,0.0,-999.0,1,-99.99,,,0.00,Acu-Link.com,2013-05-31 15:45:00,
2013-05-31 11:01:00,77.0,-30.6,29.40,South,180,0.0,-999.0,1,-99.99,,,0.00,Acu-Link.com,2013-05-31 16:01:00,
2013-05-31 11:16:00,77.5,-30.3,29.41,South,180,0.0,-999.0,1,-99.99,,,0.00,Acu-Link.com,2013-05-31 16:16:00,
2013-05-31 11:31:00,75.0,-31.8,29.41,South,180,0.0,-999.0,1,-99.99,,,0.00,Acu-Link.com,2013-05-31 16:31:00,
2013-05-31 11:46:00,74.1,-32.4,29.42,SE,135,0.0,-999.0,1,-99.99,,,0.00,Acu-Link.com,2013-05-31 16:46:00,
2013-05-31 12:01:00,75.6,-31.5,29.42,SE,135,0.0,-999.0,1,-99.99,,,0.00,Acu-Link.com,2013-05-31 17:01:00,
2013-05-31 12:16:00,76.5,-30.9,29.42,SW,225,0.0,-999.0,1,-99.99,,,0.00,Acu-Link.com,2013-05-31 17:16:00,
2013-05-31 12:31:00,74.3,-32.2,29.42,SW,225,0.0,-999.0,1,-99.99,,,0.00,Acu-Link.com,2013-05-31 17:31:00,
2013-05-31 12:46:00,75.2,-31.7,29.42,South,180,0.0,-999.0,1,-99.99,,,0.00,Acu-Link.com,2013-05-31 17:46:00,
2013-05-31 13:01:00,76.1,-31.2,29.41,ESE,112,0.0,-999.0,1,-99.99,,,0.00,Acu-Link.com,2013-05-31 18:01:00,
2013-05-31 13:17:00,77.5,-30.3,29.42,SSW,202,0.0,-999.0,1,-99.99,,,0.00,Acu-Link.com,2013-05-31 18:17:00,
2013-05-31 13:32:00,76.6,-30.9,29.42,SW,225,0.0,-999.0,1,-99.99,,,0.00,Acu-Link.com,2013-05-31 18:32:00,
2013-05-31 13:47:00,75.9,-31.3,29.42,SSE,157,0.0,-999.0,1,-99.99,,,0.00,Acu-Link.com,2013-05-31 18:47:00,
2013-05-31 14:02:00,73.9,-32.5,29.42,South,180,0.0,-999.0,1,-99.99,,,0.00,Acu-Link.com,2013-05-31 19:02:00,
2013-05-31 14:17:00,75.2,-31.7,29.41,SSW,202,0.0,-999.0,1,-99.99,,,0.00,Acu-Link.com,2013-05-31 19:17:00,
2013-05-31 14:32:00,74.7,-32.0,29.41,South,180,0.0,-999.0,1,-99.99,,,0.00,Acu-Link.com,2013-05-31 19:32:00,
2013-05-31 14:47:00,76.3,-31.0,29.41,South,180,0.0,-999.0,1,-99.99,,,0.00,Acu-Link.com,2013-05-31 19:47:00,
2013-05-31 15:02:00,75.7,-31.4,29.41,SSE,157,0.0,-999.0,1,-99.99,,,0.00,Acu-Link.com,2013-05-31 20:02:00,
2013-05-31 15:17:00,75.4,-31.6,29.40,SSE,157,0.0,-999.0,1,-99.99,,,0.00,Acu-Link.com,2013-05-31 20:17:00,
2013-05-31 15:32:00,75.6,-31.5,29.40,SSE,157,0.0,-999.0,1,-99.99,,,0.00,Acu-Link.com,2013-05-31 20:32:00,
2013-05-31 15:48:00,76.3,-31.0,29.40,South,180,0.0,-999.0,1,-99.99,,,0.00,Acu-Link.com,2013-05-31 20:48:00,
2013-05-31 16:03:00,76.1,-31.2,29.40,West,270,0.0,-999.0,1,-99.99,,,0.00,Acu-Link.com,2013-05-31 21:03:00,
2013-05-31 16:18:00,75.9,-31.3,29.40,South,180,0.0,-999.0,1,-99.99,,,0.00,Acu-Link.com,2013-05-31 21:18:00,
2013-05-31 16:33:00,77.4,-30.4,29.40,SW,225,0.0,-999.0,1,-99.99,,,0.00,Acu-Link.com,2013-05-31 21:33:00,
2013-05-31 16:48:00,76.3,-31.0,29.39,SSE,157,0.0,-999.0,0,-99.99,,,0.00,Acu-Link.com,2013-05-31 21:48:00,
2013-05-31 17:03:00,76.5,-30.9,29.39,NE,45,0.0,-999.0,0,-99.99,,,0.00,Acu-Link.com,2013-05-31 22:03:00,
2013-05-31 17:18:00,76.6,-30.9,29.39,SSE,157,0.0,-999.0,0,-99.99,,,0.00,Acu-Link.com,2013-05-31 22:18:00,
2013-05-31 17:33:00,76.5,-30.9,29.39,SSE,157,0.0,-999.0,0,-99.99,,,0.00,Acu-Link.com,2013-05-31 22:33:00,
2013-05-31 17:48:00,76.3,-31.0,29.38,South,180,0.0,-999.0,0,-99.99,,,0.00,Acu-Link.com,2013-05-31 22:48:00,
2013-05-31 18:04:00,76.3,-31.0,29.37,NNE,22,0.0,-999.0,0,-99.99,,,0.00,Acu-Link.com,2013-05-31 23:04:00,
2013-05-31 18:19:00,75.4,-31.6,29.38,SSE,157,0.0,-999.0,0,-99.99,,,0.00,Acu-Link.com,2013-05-31 23:19:00,
2013-05-31 18:34:00,73.9,-32.5,29.38,SE,135,0.0,-999.0,0,-99.99,,,0.00,Acu-Link.com,2013-05-31 23:34:00,
2013-05-31 18:49:00,73.2,-32.9,29.38,South,180,0.0,-999.0,0,-99.99,,,0.00,Acu-Link.com,2013-05-31 23:49:00,
2013-05-31 19:04:00,72.7,-33.2,29.38,South,180,0.0,-999.0,0,-99.99,,,0.00,Acu-Link.com,2013-06-01 00:04:00,
2013-05-31 19:19:00,72.3,-33.4,29.39,South,180,0.0,-999.0,0,-99.99,,,0.00,Acu-Link.com,2013-06-01 00:19:00,
2013-05-31 19:34:00,72.5,-33.3,29.38,ESE,112,0.0,-999.0,0,-99.99,,,0.00,Acu-Link.com,2013-06-01 00:34:00,
2013-05-31 19:49:00,72.1,-33.6,29.37,SSE,157,0.0,-999.0,0,-99.99,,,0.00,Acu-Link.com,2013-06-01 00:49:00,
2013-05-31 20:04:00,72.0,-33.6,29.36,South,180,0.0,-999.0,0,-99.99,,,0.00,Acu-Link.com,2013-06-01 01:04:00,
2013-05-31 20:20:00,71.4,-34.0,29.36,SSE,157,0.0,-999.0,0,-99.99,,,0.00,Acu-Link.com,2013-06-01 01:20:00,
2013-05-31 20:35:00,71.1,-34.2,29.37,SSE,157,0.0,-999.0,0,-99.99,,,0.00,Acu-Link.com,2013-06-01 01:35:00,
2013-05-31 20:50:00,70.5,-34.5,29.37,ESE,112,0.0,-999.0,0,-99.99,,,0.00,Acu-Link.com,2013-06-01 01:50:00,
2013-05-31 21:05:00,70.2,-34.7,29.38,SW,225,0.0,-999.0,0,-99.99,,,0.00,Acu-Link.com,2013-06-01 02:05:00,
2013-05-31 21:20:00,69.8,-34.9,29.38,SE,135,0.0,-999.0,0,-99.99,,,0.00,Acu-Link.com,2013-06-01 02:20:00,
2013-05-31 21:35:00,69.6,-35.1,29.39,South,180,0.0,-999.0,0,-99.99,,,0.00,Acu-Link.com,2013-06-01 02:35:00,
2013-05-31 21:50:00,69.3,-35.2,29.39,South,180,0.0,-999.0,0,-99.99,,,0.00,Acu-Link.com,2013-06-01 02:50:00,
2013-05-31 22:06:00,69.3,-35.2,29.39,South,180,0.0,-999.0,0,-99.99,,,0.00,Acu-Link.com,2013-06-01 03:06:00,
2013-05-31 22:21:00,68.5,-35.7,29.40,SSE,157,0.0,-999.0,0,-99.99,,,0.00,Acu-Link.com,2013-06-01 03:21:00,
2013-05-31 22:36:00,68.2,-35.9,29.39,SE,135,0.0,-999.0,0,-99.99,,,0.00,Acu-Link.com,2013-06-01 03:36:00,
2013-05-31 22:51:00,68.0,-36.0,29.38,SSE,157,0.0,-999.0,0,-99.99,,,0.00,Acu-Link.com,2013-06-01 03:51:00,
2013-05-31 23:06:00,67.5,-36.3,29.38,SSE,157,0.0,-999.0,0,-99.99,,,0.00,Acu-Link.com,2013-06-01 04:06:00,
2013-05-31 23:21:00,67.3,-36.4,29.37,SSE,157,0.0,-999.0,0,-99.99,,,0.00,Acu-Link.com,2013-06-01 04:21:00,
2013-05-31 23:36:00,67.1,-36.6,29.37,SSW,202,0.0,-999.0,0,-99.99,,,0.00,Acu-Link.com,2013-06-01 04:36:00,
2013-05-31 23:51:00,66.9,-36.7,29.37,South,180,0.0,-999.0,0,-99.99,,,0.00,Acu-Link.com,2013-06-01 04:51:00,